Fort Pierce, FL

5:43 AM EDT op 31 oktober 2014 (GMT -0400)
Saint Lucie County International | Change Station
CLOSE
Current Station
Luchthaven
Location: Ft Pierce,
Geometrische hoogte: 23 ft
Nabije weerstations

Hoogte 23 ft 27.50 °N, 80.38 °W | Updated 50 minutes ago

Helder
Helder
69 °F
Voelt als 69 °F
N
5
Wind Variabel Wind van zuid

Vandaag
Hoog -- | Laag -- °F
--% Kans op neerslag
Gisteren
Hoog -- | Laag -- °F
Precip. -- inches
7:31 AM 6:38 PM
Eerste kwartier, 53% visible
Druk 29.81 inches
Zicht 10.0 mijlen
Wolken Merendeels bewolkt 12000 ft
Dauwpunt 66 °F
Vochtigheid 90%
Neerslag 0.00 inches
Dikte sneeuw Niet beschikbaar.
UV 0 van de 12
Pollen 3.90 van de 12
Luchtkwaliteit Niet beschikbaar.
Flu Activity Niet beschikbaar.
METAR KFPR 310853Z AUTO 18004KT 10SM BKN120 21/19 A2981 RMK AO2 SLP093 T02060189 56020

More Conditions Fewer Conditions

Druk 29.81 inches
Zicht 10.0 mijlen
Wolken Merendeels bewolkt 12000 ft
Dauwpunt 66 °F
Vochtigheid 90%
Neerslag 0.00 inches
Dikte sneeuw Niet beschikbaar.
UV 0 van de 12
Pollen 3.90 van de 12
Luchtkwaliteit Niet beschikbaar.
Flu Activity Niet beschikbaar.
METAR KFPR 310853Z AUTO 18004KT 10SM BKN120 21/19 A2981 RMK AO2 SLP093 T02060189 56020

More Conditions Fewer Conditions

10-Day Weather Forecast

Almanac

Astronomie

Oct. 31, 2014 Opkomst Ondergang
Werkelijke tijd
Burgerlijke schemering
Nautische schemering
Astronomische schemering
Maan
Golflengte van het zichtbare licht
Daglengte
Tomorrow will be .
, % of the Moon is Illuminated

Extremen vandaag

State Highs State Lows

Community

WunderPhotos

Upload Photos

1,766,577 foto’s ge-upload!

WunderBlogs® & News

Nearby

Luchtkwaliteit

  Luchtkwaliteit LK-index Verontreinigende stof
Not available.

Dikte sneeuw

Station Depth Geometrische hoogte

Aardbevingen

Stad Distance Mag. Time & Date
Minimum magnitude displayed is 2.5.

Watertemperatuur langs de kust

Plaats Temperatuur

Nabije weerstations